Terminal Aerodrome Forecast
Issued by NWS Austin/San Antonio, TX

Home | Current Version | Previous Version | Text Only | Print | Product List | Glossary On
Versions: 1 2 3 4 5 6 7 8 9 10 11 12 13 14 15 16 17 18 19 20 21 22 23
000
FTUS44 KEWX 281750
TAFSAT
TAF
KSAT 281750Z 2818/2924 17012KT P6SM SCT025 BKN050
      TEMPO 2819/2822 5SM -TSRA BKN025CB
     FM290500 15010KT P6SM OVC015
     FM290800 15010KT 6SM -SHRA OVC008
      TEMPO 2908/2912 4SM -TSRA OVC008CB
     FM291500 15012KT P6SM OVC015
     FM291900 16012KT P6SM BKN025 BKN040=

USA.gov is the U.S. government's official web portal to all federal, state and local government web resources and services.